Time;durP1;ratioP1;P1;durP2;ratioP2;P2;SDS_P1;SDS_P2;PMS_P1;PMS_P2;Temp;Humidity;BMP_temperature;BMP_pressure;BME280_temperature;BME280_humidity;BME280_pressure;Samples;Min_cycle;Max_cycle;Signal;HPM_P1;HPM_P2
2023/03/01 00:00:18;;;;;;;17.50;11.50;;;-0.70;99.90;;;;;;5075119;28;20116;-66
2023/03/01 00:02:45;;;;;;;16.88;11.50;;;-0.70;99.90;;;;;;5095743;28;20105;-67
2023/03/01 00:05:12;;;;;;;15.02;10.95;;;-0.50;99.90;;;;;;5093950;28;20048;-68
2023/03/01 00:07:39;;;;;;;20.88;12.10;;;-0.70;99.90;;;;;;5078255;28;20185;-68
2023/03/01 00:10:07;;;;;;;18.90;10.75;;;-0.70;99.90;;;;;;5092823;28;20052;-67
2023/03/01 00:12:36;;;;;;;16.60;10.35;;;-0.70;99.90;;;;;;5096195;28;20048;-68
2023/03/01 00:15:04;;;;;;;17.90;11.20;;;-0.80;99.90;;;;;;5075414;28;20135;-66
2023/03/01 00:17:31;;;;;;;23.30;12.02;;;-0.80;99.90;;;;;;5094561;28;21360;-68
2023/03/01 00:19:58;;;;;;;19.60;12.52;;;-0.80;99.90;;;;;;5077568;28;20052;-68
2023/03/01 00:22:27;;;;;;;17.70;11.57;;;-0.80;99.90;;;;;;5077331;28;20071;-68
2023/03/01 00:24:54;;;;;;;18.55;12.32;;;-0.80;99.90;;;;;;5077675;28;20063;-67
2023/03/01 00:27:21;;;;;;;19.80;12.35;;;-0.80;99.90;;;;;;5077574;28;20055;-67
2023/03/01 00:29:49;;;;;;;18.63;12.10;;;-0.80;99.90;;;;;;5076572;28;20098;-67
2023/03/01 00:32:16;;;;;;;17.52;11.43;;;-0.80;99.90;;;;;;5096772;28;20048;-67
2023/03/01 00:34:54;;;;;;;22.42;12.35;;;-0.90;99.90;;;;;;5096759;28;20531;-67
2023/03/01 00:37:21;;;;;;;18.77;11.93;;;-1.00;99.90;;;;;;5096010;28;20071;-67
2023/03/01 00:39:48;;;;;;;17.23;11.48;;;-1.00;99.90;;;;;;5114220;28;20055;-68
2023/03/01 00:42:15;;;;;;;18.90;12.30;;;-1.00;99.90;;;;;;5096749;28;20085;-66
2023/03/01 00:44:42;;;;;;;17.25;12.05;;;-1.00;99.90;;;;;;5096048;28;20097;-68
2023/03/01 00:47:10;;;;;;;18.25;11.85;;;-1.00;99.90;;;;;;5096532;28;20050;-67
2023/03/01 00:49:37;;;;;;;19.65;13.05;;;-1.00;99.90;;;;;;5114279;28;20070;-67
2023/03/01 00:52:04;;;;;;;18.75;12.20;;;-1.10;99.90;;;;;;5095281;28;20047;-67
2023/03/01 00:54:31;;;;;;;20.90;12.40;;;-1.10;99.90;;;;;;5096394;28;20059;-67
2023/03/01 00:56:58;;;;;;;17.85;11.63;;;-1.10;99.90;;;;;;5096218;28;20055;-67
2023/03/01 00:59:25;;;;;;;17.80;11.52;;;-0.90;99.90;;;;;;5095477;28;20039;-67
2023/03/01 01:01:51;;;;;;;18.48;12.35;;;-1.10;99.90;;;;;;5113876;28;20047;-67
2023/03/01 01:04:20;;;;;;;18.00;11.38;;;-1.10;99.90;;;;;;5095676;28;20051;-68
2023/03/01 01:06:47;;;;;;;17.65;11.80;;;-1.10;99.90;;;;;;5095801;28;20553;-68
2023/03/01 01:09:17;;;;;;;16.58;10.93;;;-1.10;99.90;;;;;;5095683;28;20487;-67
2023/03/01 01:11:45;;;;;;;20.85;12.27;;;-1.20;99.90;;;;;;5094094;28;20082;-68
2023/03/01 01:14:12;;;;;;;15.95;11.07;;;-1.20;99.90;;;;;;5094880;28;20044;-67
2023/03/01 01:16:39;;;;;;;16.95;11.00;;;-1.30;99.90;;;;;;5092372;28;20105;-68
2023/03/01 01:19:06;;;;;;;17.95;11.10;;;-1.30;99.90;;;;;;5094000;28;20047;-68
2023/03/01 01:21:34;;;;;;;18.52;11.82;;;-1.30;99.90;;;;;;5092431;28;20047;-67
2023/03/01 01:24:03;;;;;;;17.30;11.32;;;-1.30;99.90;;;;;;5076590;28;20048;-68
2023/03/01 01:26:32;;;;;;;17.15;11.55;;;-1.30;99.90;;;;;;5094020;28;20052;-67
2023/03/01 01:29:00;;;;;;;16.75;11.38;;;-1.30;99.90;;;;;;5094246;28;20474;-67
2023/03/01 01:31:29;;;;;;;17.98;10.23;;;-1.30;99.90;;;;;;5094079;28;20439;-67
2023/03/01 01:33:57;;;;;;;14.68;9.48;;;-1.30;99.90;;;;;;5092093;28;20482;-69
2023/03/01 01:36:24;;;;;;;14.15;9.32;;;-1.30;99.90;;;;;;5091908;28;20044;-68
2023/03/01 01:38:52;;;;;;;14.20;9.70;;;-1.40;99.90;;;;;;5088998;28;20112;-69
2023/03/01 01:41:19;;;;;;;14.00;8.60;;;-1.40;99.90;;;;;;5074232;28;20052;-68
2023/03/01 01:43:49;;;;;;;14.18;9.70;;;-1.40;99.90;;;;;;5076336;28;20109;-68
2023/03/01 01:46:26;;;;;;;11.00;8.23;;;-1.40;99.90;;;;;;5093410;28;20101;-68
2023/03/01 01:48:57;;;;;;;12.45;8.68;;;-1.40;99.90;;;;;;5092849;28;20529;-68
2023/03/01 01:51:26;;;;;;;;;;;-1.40;99.90;;;;;;5092575;28;20044;-68
2023/03/01 01:53:59;;;;;;;11.25;8.25;;;-1.40;99.90;;;;;;5093245;28;19924;-68
2023/03/01 01:56:29;;;;;;;14.43;8.10;;;-1.50;99.90;;;;;;5093977;28;20055;-68
2023/03/01 01:58:57;;;;;;;11.00;7.43;;;-1.50;99.90;;;;;;5093651;28;20518;-67
2023/03/01 02:01:24;;;;;;;10.13;7.63;;;-1.50;99.90;;;;;;5093008;28;20040;-68
2023/03/01 02:03:51;;;;;;;9.65;7.15;;;-1.60;99.90;;;;;;5075670;28;20058;-67
2023/03/01 02:06:23;;;;;;;10.85;8.25;;;-1.60;99.90;;;;;;5075858;28;20076;-67
2023/03/01 02:08:52;;;;;;;13.73;8.30;;;-1.60;99.90;;;;;;5073324;28;20511;-67
2023/03/01 02:11:21;;;;;;;9.25;6.93;;;-1.60;99.90;;;;;;5075569;28;20090;-67
2023/03/01 02:13:49;;;;;;;8.90;7.38;;;-1.70;99.90;;;;;;5093003;28;20052;-68
2023/03/01 02:16:17;;;;;;;9.98;7.55;;;-1.70;99.90;;;;;;5093516;28;20113;-69
2023/03/01 02:18:45;;;;;;;8.20;6.60;;;-1.70;99.90;;;;;;5093163;28;20052;-69
2023/03/01 02:21:28;;;;;;;9.57;7.10;;;-1.80;99.90;;;;;;5071933;28;20046;-68
2023/03/01 02:23:56;;;;;;;8.70;6.80;;;-1.80;99.90;;;;;;5092388;28;20385;-68
2023/03/01 02:26:32;;;;;;;9.20;7.30;;;-1.90;99.90;;;;;;5088309;28;20131;-68
2023/03/01 02:29:00;;;;;;;9.57;6.88;;;-1.90;99.90;;;;;;5093890;28;20104;-67
2023/03/01 02:31:42;;;;;;;7.22;6.07;;;-1.90;99.90;;;;;;5094337;28;20101;-67
2023/03/01 02:34:12;;;;;;;8.02;6.20;;;-2.00;99.90;;;;;;5073406;28;20183;-68
2023/03/01 02:36:41;;;;;;;8.10;6.50;;;-2.00;99.90;;;;;;5092639;28;20389;-67
2023/03/01 02:39:15;;;;;;;8.63;6.78;;;-2.00;99.90;;;;;;5075152;28;20059;-67
2023/03/01 02:41:47;;;;;;;7.90;5.97;;;-2.00;99.90;;;;;;5092453;28;20036;-67
2023/03/01 02:44:15;;;;;;;9.48;6.60;;;-2.10;99.90;;;;;;5073812;28;20400;-68
2023/03/01 02:46:44;;;;;;;8.18;6.30;;;-2.10;99.90;;;;;;5093191;28;20043;-67
2023/03/01 02:49:21;;;;;;;7.95;6.28;;;-2.10;99.90;;;;;;5074181;28;20081;-68
2023/03/01 02:52:01;;;;;;;9.10;6.53;;;-2.10;99.90;;;;;;5092913;28;20044;-69
2023/03/01 02:54:32;;;;;;;8.00;6.57;;;-2.10;99.90;;;;;;5112313;28;20044;-68
2023/03/01 02:56:58;;;;;;;;;;;-2.20;99.90;;;;;;5093796;28;20379;-68
2023/03/01 02:59:32;;;;;;;8.63;6.10;;;-2.20;99.90;;;;;;5112065;28;19920;-68
2023/03/01 03:01:58;;;;;;;7.55;6.43;;;-2.20;99.90;;;;;;5093769;28;20148;-68
2023/03/01 03:04:25;;;;;;;9.07;6.78;;;-2.20;99.90;;;;;;5093005;28;20495;-69
2023/03/01 03:06:52;;;;;;;7.90;6.78;;;-2.30;99.90;;;;;;5109956;28;20052;-68
2023/03/01 03:09:20;;;;;;;10.80;6.97;;;-2.30;99.90;;;;;;5111825;28;20495;-68
2023/03/01 03:11:47;;;;;;;8.02;6.13;;;-2.30;99.90;;;;;;5111186;28;20486;-68
2023/03/01 03:14:17;;;;;;;7.35;6.15;;;-2.20;99.90;;;;;;5093641;28;20138;-69
2023/03/01 03:16:48;;;;;;;8.88;6.70;;;-2.40;99.90;;;;;;5111374;28;20502;-68
2023/03/01 03:19:16;;;;;;;7.57;6.60;;;-2.40;99.90;;;;;;5093766;28;20073;-68
2023/03/01 03:21:43;;;;;;;8.63;6.55;;;-2.40;99.90;;;;;;5111563;28;20096;-67
2023/03/01 03:24:10;;;;;;;8.27;6.45;;;-2.50;99.90;;;;;;5093453;28;20130;-68
2023/03/01 03:26:37;;;;;;;7.75;6.35;;;-2.40;99.90;;;;;;5093398;28;20047;-68
2023/03/01 03:29:04;;;;;;;8.10;6.35;;;-2.40;99.90;;;;;;5093768;28;20100;-68
2023/03/01 03:31:31;;;;;;;7.18;6.25;;;-2.40;99.90;;;;;;5092695;28;20062;-67
2023/03/01 03:33:59;;;;;;;7.55;6.20;;;-2.40;99.90;;;;;;5097937;28;20052;-68
2023/03/01 03:36:26;;;;;;;8.23;6.13;;;-2.40;99.90;;;;;;5094488;28;20088;-68
2023/03/01 03:38:53;;;;;;;8.23;6.03;;;-2.40;99.90;;;;;;5078219;28;20048;-68
2023/03/01 03:41:20;;;;;;;8.50;6.00;;;-2.40;99.90;;;;;;5078672;28;20048;-68
2023/03/01 03:43:48;;;;;;;7.07;6.20;;;-2.40;99.90;;;;;;5078588;28;20419;-69
2023/03/01 03:46:16;;;;;;;7.30;5.95;;;-2.30;99.90;;;;;;5076131;28;20052;-69
2023/03/01 03:48:45;;;;;;;8.20;6.43;;;-2.40;99.90;;;;;;5078178;28;20605;-68
2023/03/01 03:51:16;;;;;;;6.97;6.13;;;-2.40;99.90;;;;;;5078354;28;20054;-69
2023/03/01 03:53:43;;;;;;;8.30;6.80;;;-2.40;99.90;;;;;;5075707;28;20097;-68
2023/03/01 03:56:10;;;;;;;8.20;6.65;;;-2.40;99.90;;;;;;5096273;28;20051;-68
2023/03/01 03:58:38;;;;;;;7.72;6.80;;;-2.40;99.90;;;;;;5077807;28;20047;-68
2023/03/01 04:01:05;;;;;;;9.18;6.78;;;-2.20;99.90;;;;;;5077441;28;20511;-68
2023/03/01 04:03:34;;;;;;;8.27;6.85;;;-2.50;99.90;;;;;;5078192;28;20067;-68
2023/03/01 04:06:03;;;;;;;8.27;6.78;;;-2.50;99.90;;;;;;5095620;28;20050;-67
2023/03/01 04:08:32;;;;;;;7.95;6.60;;;-2.50;99.90;;;;;;5095922;28;20119;-68
2023/03/01 04:11:25;;;;;;;8.80;6.90;;;-2.40;99.90;;;;;;5077987;28;20404;-68
2023/03/01 04:13:48;;;;;;;9.23;7.35;;;-2.40;99.90;;;;;;5094969;28;20044;-67
2023/03/01 04:16:15;;;;;;;9.43;7.18;;;-2.30;99.90;;;;;;5077950;28;20472;-68
2023/03/01 04:18:42;;;;;;;8.23;6.43;;;-2.50;99.90;;;;;;5077679;28;20044;-69
2023/03/01 04:21:10;;;;;;;8.73;6.32;;;-2.70;99.90;;;;;;5095178;28;20039;-68
2023/03/01 04:23:40;;;;;;;9.10;6.68;;;-2.70;99.90;;;;;;5077398;28;20119;-68
2023/03/01 04:26:08;;;;;;;10.15;7.18;;;-2.80;99.90;;;;;;5095892;28;20101;-67
2023/03/01 04:28:36;;;;;;;23.70;8.60;;;-2.90;99.90;;;;;;5076929;28;20407;-67
2023/03/01 04:31:12;;;;;;;11.02;7.78;;;-3.10;99.90;;;;;;5095261;28;20131;-67
2023/03/01 04:33:41;;;;;;;14.20;8.15;;;-3.10;99.90;;;;;;5077072;28;20039;-68
2023/03/01 04:36:09;;;;;;;15.50;7.60;;;-3.20;99.90;;;;;;5076694;28;20094;-66
2023/03/01 04:38:38;;;;;;;9.68;6.97;;;-3.20;99.90;;;;;;5064550;28;20055;-68
2023/03/01 04:41:06;;;;;;;36.65;9.00;;;-3.10;99.90;;;;;;5084624;28;20055;-67
2023/03/01 04:43:34;;;;;;;16.67;8.35;;;-3.30;99.90;;;;;;5087058;28;20048;-66
2023/03/01 04:46:04;;;;;;;21.50;9.13;;;-3.40;99.90;;;;;;5091362;28;20076;-66
2023/03/01 04:48:32;;;;;;;14.15;8.52;;;-3.40;99.90;;;;;;5070846;28;20052;-67
2023/03/01 04:50:59;;;;;;;41.72;9.70;;;-3.50;99.90;;;;;;5069388;28;20143;-68
2023/03/01 04:53:26;;;;;;;19.88;8.57;;;-3.50;99.90;;;;;;5069979;28;20048;-67
2023/03/01 04:55:55;;;;;;;32.58;8.98;;;-3.50;99.90;;;;;;5088082;28;20059;-67
2023/03/01 04:58:22;;;;;;;32.55;9.30;;;-3.40;99.90;;;;;;5094041;28;20131;-67
2023/03/01 05:00:49;;;;;;;120.43;13.40;;;-3.40;99.90;;;;;;5070253;28;20066;-66
2023/03/01 05:03:17;;;;;;;140.27;16.38;;;-3.40;99.90;;;;;;5074008;28;20408;-67
2023/03/01 05:05:46;;;;;;;39.50;9.52;;;-3.40;99.90;;;;;;5076180;28;20048;-66
2023/03/01 05:08:17;;;;;;;83.15;13.40;;;-3.30;99.90;;;;;;5094597;28;20044;-66
2023/03/01 05:10:46;;;;;;;27.88;10.40;;;-3.30;99.90;;;;;;5089609;28;20052;-66
2023/03/01 05:13:20;;;;;;;23.60;9.80;;;-3.20;99.90;;;;;;5074844;28;20123;-66
2023/03/01 05:15:48;;;;;;;38.17;10.40;;;-3.30;99.90;;;;;;5091903;28;20051;-66
2023/03/01 05:18:15;;;;;;;55.45;11.82;;;-3.20;99.90;;;;;;5089581;28;20385;-66
2023/03/01 05:20:42;;;;;;;16.75;9.02;;;-3.20;99.90;;;;;;5086863;28;20408;-66
2023/03/01 05:23:09;;;;;;;26.60;10.00;;;-3.20;99.90;;;;;;5089306;28;20047;-66
2023/03/01 05:25:39;;;;;;;44.80;11.40;;;-3.20;99.90;;;;;;5070891;28;20055;-67
2023/03/01 05:28:09;;;;;;;47.05;12.80;;;-3.20;99.90;;;;;;5073859;28;20063;-66
2023/03/01 05:30:38;;;;;;;22.83;10.55;;;-3.20;99.90;;;;;;5089767;28;20492;-66
2023/03/01 05:33:10;;;;;;;16.13;9.80;;;-3.20;99.90;;;;;;5093981;28;20048;-66
2023/03/01 05:35:37;;;;;;;14.05;9.50;;;-3.20;99.90;;;;;;5071165;28;20059;-65
2023/03/01 05:38:04;;;;;;;14.23;9.57;;;-3.20;99.90;;;;;;5090867;28;20076;-65
2023/03/01 05:40:33;;;;;;;13.75;9.25;;;-3.20;99.90;;;;;;5086952;28;20047;-66
2023/03/01 05:43:01;;;;;;;12.82;8.65;;;-3.20;99.90;;;;;;5068642;28;20503;-65
2023/03/01 05:45:28;;;;;;;11.30;8.18;;;-3.20;99.90;;;;;;5085571;28;20048;-65
2023/03/01 05:47:57;;;;;;;11.68;8.20;;;-3.20;99.90;;;;;;5090443;28;20105;-65
2023/03/01 05:50:26;;;;;;;12.50;8.10;;;-3.20;99.90;;;;;;5086865;28;20052;-65
2023/03/01 05:52:58;;;;;;;11.32;8.15;;;-3.20;99.90;;;;;;5079133;28;20044;-65
2023/03/01 05:55:25;;;;;;;12.50;9.05;;;-3.20;99.90;;;;;;5068719;28;20074;-66
2023/03/01 05:57:52;;;;;;;12.68;8.82;;;-3.20;99.90;;;;;;5085967;28;20043;-66
2023/03/01 06:00:23;;;;;;;13.30;9.05;;;-3.20;99.90;;;;;;5091255;28;20112;-67
2023/03/01 06:02:50;;;;;;;;;;;-3.20;99.90;;;;;;5087620;28;20043;-67
2023/03/01 06:05:18;;;;;;;13.93;7.72;;;-3.20;99.90;;;;;;5085984;28;19990;-67
2023/03/01 06:07:45;;;;;;;12.57;8.25;;;-3.20;99.90;;;;;;5069641;28;20126;-67
2023/03/01 06:10:13;;;;;;;13.98;9.05;;;-3.10;99.90;;;;;;5072704;28;20040;-66
2023/03/01 06:12:42;;;;;;;12.27;7.95;;;-3.10;99.90;;;;;;5087256;28;20067;-66
2023/03/01 06:15:10;;;;;;;14.85;9.07;;;-3.00;99.90;;;;;;5069240;28;20517;-67
2023/03/01 06:17:40;;;;;;;12.40;8.07;;;-3.00;99.90;;;;;;5084853;28;20044;-66
2023/03/01 06:20:09;;;;;;;11.40;8.40;;;-3.00;99.90;;;;;;5083031;28;20484;-67
2023/03/01 06:22:38;;;;;;;12.55;8.40;;;-3.00;99.90;;;;;;5085086;28;20492;-66
2023/03/01 06:25:06;;;;;;;12.05;8.45;;;-3.00;99.90;;;;;;5069498;28;20052;-67
2023/03/01 06:27:33;;;;;;;10.63;8.27;;;-3.00;99.90;;;;;;5085901;28;20514;-67
2023/03/01 06:30:01;;;;;;;12.80;9.40;;;-3.10;99.90;;;;;;5086933;28;20059;-66
2023/03/01 06:32:28;;;;;;;15.48;9.35;;;-3.50;99.90;;;;;;5086236;28;20483;-68
2023/03/01 06:34:55;;;;;;;12.70;8.35;;;-3.10;99.90;;;;;;5087500;28;20052;-68
2023/03/01 06:37:22;;;;;;;13.07;9.02;;;-3.00;99.90;;;;;;5072716;28;20496;-68
2023/03/01 06:39:50;;;;;;;13.05;8.80;;;-2.90;99.90;;;;;;5069987;28;20492;-67
2023/03/01 06:42:17;;;;;;;12.73;8.93;;;-2.90;99.90;;;;;;5086770;28;20044;-67
2023/03/01 06:44:45;;;;;;;13.63;8.65;;;-2.80;99.90;;;;;;5078491;28;20380;-67
2023/03/01 06:47:12;;;;;;;12.93;8.93;;;-2.70;99.90;;;;;;5085268;28;20059;-67
2023/03/01 06:49:39;;;;;;;14.82;9.80;;;-2.70;99.90;;;;;;5070743;28;20133;-66
2023/03/01 06:52:06;;;;;;;12.07;9.07;;;-2.60;99.90;;;;;;5067159;28;20090;-67
2023/03/01 06:54:33;;;;;;;14.95;9.13;;;-2.50;99.90;;;;;;5087240;28;20507;-67
2023/03/01 06:57:01;;;;;;;14.77;9.63;;;-2.40;99.90;;;;;;5070033;28;20067;-67
2023/03/01 06:59:28;;;;;;;13.50;9.02;;;-2.30;99.90;;;;;;5087129;28;20044;-68
2023/03/01 07:01:55;;;;;;;13.88;9.23;;;-2.30;99.90;;;;;;5069526;28;20105;-68
2023/03/01 07:04:22;;;;;;;14.57;8.77;;;-2.20;99.90;;;;;;5070466;28;20040;-68
2023/03/01 07:06:54;;;;;;;15.13;9.05;;;-2.20;99.90;;;;;;5064609;28;20057;-68
2023/03/01 07:09:22;;;;;;;13.38;9.15;;;-2.10;99.90;;;;;;5064559;28;20052;-67
2023/03/01 07:11:49;;;;;;;15.68;9.30;;;-2.00;99.90;;;;;;5070168;28;20508;-67
2023/03/01 07:14:19;;;;;;;13.10;9.07;;;-1.90;99.90;;;;;;5063345;28;20052;-67
2023/03/01 07:16:46;;;;;;;14.35;9.55;;;-1.80;99.90;;;;;;5066236;28;20390;-67
2023/03/01 07:19:13;;;;;;;12.57;9.55;;;-1.70;99.90;;;;;;5064490;28;20052;-66
2023/03/01 07:21:40;;;;;;;15.27;10.77;;;-1.60;99.90;;;;;;5071666;28;20439;-67
2023/03/01 07:24:08;;;;;;;12.63;9.25;;;-1.40;99.90;;;;;;5069278;28;20048;-67
2023/03/01 07:26:35;;;;;;;14.23;10.00;;;-1.30;99.90;;;;;;5070332;28;20455;-67
2023/03/01 07:29:02;;;;;;;17.50;10.68;;;-1.10;99.90;;;;;;5090066;28;20052;-67
2023/03/01 07:31:31;;;;;;;16.77;10.60;;;-0.90;99.90;;;;;;5091305;28;20043;-66
2023/03/01 07:33:58;;;;;;;13.93;9.93;;;-0.30;99.90;;;;;;5070617;28;20045;-68
2023/03/01 07:36:26;;;;;;;14.93;9.90;;;0.60;99.90;;;;;;5072390;28;20082;-67
2023/03/01 07:38:53;;;;;;;11.45;9.07;;;1.60;99.90;;;;;;5070480;28;20049;-67
2023/03/01 07:41:20;;;;;;;13.32;9.95;;;2.30;99.90;;;;;;5089212;28;20133;-67
2023/03/01 07:43:47;;;;;;;14.18;9.73;;;3.10;99.90;;;;;;5091122;28;20834;-68
2023/03/01 07:46:14;;;;;;;12.38;8.70;;;3.60;99.90;;;;;;5089166;28;20059;-67
2023/03/01 07:48:42;;;;;;;11.95;7.82;;;3.90;99.90;;;;;;5091473;28;20044;-66
2023/03/01 07:51:09;;;;;;;12.00;8.25;;;4.40;99.90;;;;;;5069899;28;20522;-66
2023/03/01 07:53:36;;;;;;;12.73;8.88;;;4.60;99.90;;;;;;5071589;28;20162;-66
2023/03/01 07:56:04;;;;;;;11.45;8.15;;;4.70;99.90;;;;;;5071999;28;20121;-66
2023/03/01 07:58:32;;;;;;;10.77;8.52;;;4.90;99.90;;;;;;5070487;28;20408;-67
2023/03/01 08:01:03;;;;;;;12.25;8.85;;;5.00;99.90;;;;;;5070482;28;20053;-67
2023/03/01 08:03:30;;;;;;;12.90;8.65;;;5.40;99.90;;;;;;5070122;28;20040;-67
2023/03/01 08:06:00;;;;;;;12.27;8.55;;;5.80;99.90;;;;;;5071399;28;20102;-67
2023/03/01 08:08:27;;;;;;;14.73;8.68;;;6.30;99.90;;;;;;5070949;28;20040;-67
2023/03/01 08:10:56;;;;;;;11.77;8.93;;;6.90;99.90;;;;;;5071553;28;20044;-68
2023/03/01 08:13:23;;;;;;;12.80;9.43;;;7.60;99.90;;;;;;5070200;28;20404;-67
2023/03/01 08:15:50;;;;;;;10.65;8.88;;;8.10;99.90;;;;;;5069767;28;20040;-67
2023/03/01 08:18:17;;;;;;;13.88;9.05;;;8.80;99.90;;;;;;5071838;28;20086;-68
2023/03/01 08:20:44;;;;;;;13.02;9.07;;;9.50;99.90;;;;;;5072510;28;20090;-67
2023/03/01 08:23:13;;;;;;;14.27;10.48;;;10.00;99.90;;;;;;5074062;28;20044;-68
2023/03/01 08:25:40;;;;;;;14.38;11.02;;;10.40;99.90;;;;;;5072385;28;20059;-68
2023/03/01 08:28:07;;;;;;;18.02;11.65;;;10.40;99.90;;;;;;5073357;28;20090;-68
2023/03/01 08:30:34;;;;;;;15.05;11.80;;;11.00;99.90;;;;;;5073932;28;20048;-67
2023/03/01 08:33:01;;;;;;;19.08;13.77;;;11.70;99.90;;;;;;5075090;28;20052;-67
2023/03/01 08:35:28;;;;;;;21.45;15.02;;;12.40;99.10;;;;;;5073260;28;20044;-68
2023/03/01 08:37:55;;;;;;;22.08;15.88;;;13.10;99.90;;;;;;5074946;28;20047;-68
2023/03/01 08:40:23;;;;;;;24.00;16.55;;;13.70;98.80;;;;;;5073863;28;20052;-68
2023/03/01 08:42:50;;;;;;;20.10;15.60;;;14.00;95.80;;;;;;5074639;28;20044;-69
2023/03/01 08:45:18;;;;;;;20.92;14.63;;;13.60;93.20;;;;;;5073934;28;20044;-67
2023/03/01 08:47:45;;;;;;;21.50;14.05;;;13.80;95.00;;;;;;5073422;28;20474;-67
2023/03/01 08:50:12;;;;;;;18.83;14.63;;;14.00;91.90;;;;;;5074922;28;20128;-67
2023/03/01 08:52:39;;;;;;;22.80;16.23;;;14.20;92.80;;;;;;5073589;28;20045;-68
2023/03/01 08:55:07;;;;;;;20.30;16.13;;;14.10;93.20;;;;;;5072854;28;20048;-68
2023/03/01 08:57:35;;;;;;;20.92;15.13;;;14.60;93.10;;;;;;5071707;28;20094;-67
2023/03/01 09:00:07;;;;;;;18.65;15.23;;;15.10;93.20;;;;;;5075227;28;20048;-68
2023/03/01 09:02:34;;;;;;;17.67;14.60;;;14.50;90.30;;;;;;5076221;28;20128;-68
2023/03/01 09:05:01;;;;;;;20.00;14.57;;;14.90;90.90;;;;;;5076859;28;20055;-69
2023/03/01 09:07:29;;;;;;;19.42;14.88;;;14.80;91.30;;;;;;5094918;28;20434;-68
2023/03/01 09:09:56;;;;;;;17.30;14.60;;;15.30;87.00;;;;;;5074267;28;20123;-69
2023/03/01 09:12:24;;;;;;;19.23;15.27;;;16.60;90.40;;;;;;5076477;28;20047;-68
2023/03/01 09:14:52;;;;;;;19.00;15.65;;;16.00;84.50;;;;;;5092793;28;20052;-67
2023/03/01 09:17:21;;;;;;;18.55;15.05;;;16.00;83.00;;;;;;5094195;28;20407;-67
2023/03/01 09:19:48;;;;;;;19.63;15.30;;;15.90;85.50;;;;;;5094800;28;20097;-67
2023/03/01 09:22:15;;;;;;;19.83;14.73;;;15.60;83.90;;;;;;5076627;28;20048;-68
2023/03/01 09:24:42;;;;;;;16.90;14.05;;;15.80;86.00;;;;;;5075760;28;20488;-67
2023/03/01 09:27:09;;;;;;;18.67;13.85;;;16.40;84.00;;;;;;5094443;28;20036;-68
2023/03/01 09:29:38;;;;;;;17.70;14.73;;;16.70;82.50;;;;;;5094127;28;20093;-69
2023/03/01 09:32:07;;;;;;;16.48;13.50;;;16.80;82.70;;;;;;5093700;28;20047;-68
2023/03/01 09:35:00;;;;;;;17.33;14.43;;;17.30;76.00;;;;;;5074255;28;20484;-67
2023/03/01 09:37:21;;;;;;;17.30;13.52;;;17.10;79.10;;;;;;5093444;28;20147;-69
2023/03/01 09:39:48;;;;;;;16.65;14.25;;;16.60;77.10;;;;;;5076351;28;20052;-68
2023/03/01 09:42:15;;;;;;;17.83;13.80;;;16.90;75.40;;;;;;5093937;28;20052;-68
2023/03/01 09:44:48;;;;;;;17.83;14.35;;;17.50;76.40;;;;;;5075596;28;20046;-69
2023/03/01 09:47:19;;;;;;;19.90;13.10;;;17.40;74.10;;;;;;5075970;28;20446;-68
2023/03/01 09:49:50;;;;;;;15.75;12.57;;;17.00;71.90;;;;;;5074460;28;20048;-69
2023/03/01 09:52:26;;;;;;;16.70;12.30;;;17.30;73.00;;;;;;5094402;28;20619;-68
2023/03/01 09:54:56;;;;;;;16.00;12.43;;;18.20;71.30;;;;;;5073769;28;20143;-68
2023/03/01 09:57:31;;;;;;;19.60;12.65;;;17.50;69.00;;;;;;5093857;28;20094;-69
2023/03/01 10:00:08;;;;;;;17.70;12.50;;;17.90;70.30;;;;;;5075467;28;20414;-68
2023/03/01 10:02:42;;;;;;;19.23;12.82;;;17.10;68.80;;;;;;5093763;28;20044;-69
2023/03/01 10:05:26;;;;;;;14.30;11.98;;;16.70;70.30;;;;;;5093293;28;20811;-68
2023/03/01 10:08:03;;;;;;;16.77;11.70;;;16.40;70.40;;;;;;5075969;28;20063;-68
2023/03/01 10:10:34;;;;;;;15.88;12.00;;;16.60;71.00;;;;;;5092785;28;20055;-68
2023/03/01 10:13:03;;;;;;;15.55;12.13;;;16.50;70.90;;;;;;5074933;28;20442;-68
2023/03/01 10:15:36;;;;;;;16.70;12.43;;;16.60;70.50;;;;;;5093377;28;20048;-68
2023/03/01 10:18:10;;;;;;;13.63;11.40;;;16.60;70.70;;;;;;5093231;28;20055;-69
2023/03/01 10:20:46;;;;;;;12.55;11.18;;;16.30;71.10;;;;;;5092838;28;20728;-68
2023/03/01 10:23:13;;;;;;;14.77;10.65;;;16.60;72.10;;;;;;5075227;28;20499;-69
2023/03/01 10:25:57;;;;;;;14.15;11.52;;;16.80;73.00;;;;;;5075463;28;20039;-69
2023/03/01 10:28:30;;;;;;;15.57;11.82;;;16.70;72.10;;;;;;5093331;28;20047;-69
2023/03/01 10:30:59;;;;;;;12.98;10.52;;;16.80;71.00;;;;;;5075272;28;20109;-68
2023/03/01 10:33:31;;;;;;;12.13;10.88;;;17.00;71.20;;;;;;5092956;28;20048;-68
2023/03/01 10:35:58;;;;;;;14.77;12.23;;;17.10;71.50;;;;;;5091554;28;20044;-69
2023/03/01 10:38:26;;;;;;;14.48;10.65;;;17.10;68.70;;;;;;5093058;28;20582;-69
2023/03/01 10:40:57;;;;;;;16.15;11.98;;;17.30;69.60;;;;;;5092526;28;20044;-69
2023/03/01 10:43:25;;;;;;;14.48;12.57;;;17.00;70.60;;;;;;5072620;28;20564;-68
2023/03/01 10:45:52;;;;;;;13.88;11.70;;;16.90;68.90;;;;;;5092990;28;20459;-67
2023/03/01 10:48:23;;;;;;;14.73;11.90;;;17.00;68.80;;;;;;5074524;28;20056;-68
2023/03/01 10:51:04;;;;;;;15.90;13.48;;;17.20;69.50;;;;;;5074934;28;20101;-68
2023/03/01 10:53:34;;;;;;;15.02;12.55;;;16.90;69.10;;;;;;5092951;28;20044;-69
2023/03/01 10:56:03;;;;;;;12.68;11.32;;;17.40;70.00;;;;;;5074251;28;20047;-69
2023/03/01 10:58:32;;;;;;;14.85;11.23;;;17.20;70.00;;;;;;5092939;28;20443;-68
2023/03/01 11:01:01;;;;;;;13.75;11.27;;;17.20;70.20;;;;;;5092653;28;20097;-68
2023/03/01 11:03:30;;;;;;;12.05;10.82;;;16.90;70.40;;;;;;5111395;28;20054;-69
2023/03/01 11:06:06;;;;;;;13.35;10.80;;;17.40;71.40;;;;;;5111852;28;20056;-68
2023/03/01 11:08:36;;;;;;;10.80;9.35;;;17.40;70.40;;;;;;5111385;28;20461;-68
2023/03/01 11:11:19;;;;;;;14.77;11.07;;;17.40;70.00;;;;;;5111963;28;20101;-67
2023/03/01 11:13:55;;;;;;;17.27;10.60;;;17.50;69.70;;;;;;5074597;28;20446;-68
2023/03/01 11:16:33;;;;;;;12.50;10.15;;;17.30;69.90;;;;;;5092133;28;20081;-67
2023/03/01 11:19:19;;;;;;;10.70;9.60;;;17.00;69.30;;;;;;5093069;28;20043;-67
2023/03/01 11:22:02;;;;;;;10.30;9.27;;;16.80;71.30;;;;;;5074648;28;20051;-67
2023/03/01 11:24:35;;;;;;;14.63;10.40;;;17.10;69.90;;;;;;5072209;28;20113;-69
2023/03/01 11:27:05;;;;;;;11.55;9.55;;;16.90;72.20;;;;;;5111762;28;20487;-69
2023/03/01 11:29:38;;;;;;;11.70;9.38;;;17.00;70.20;;;;;;5111145;28;20066;-69
2023/03/01 11:32:09;;;;;;;12.07;10.00;;;17.10;69.60;;;;;;5111547;28;21213;-68
2023/03/01 11:34:43;;;;;;;10.32;9.32;;;17.50;70.00;;;;;;5111598;28;20105;-69
2023/03/01 11:37:24;;;;;;;11.52;9.70;;;17.50;67.70;;;;;;5073083;28;20094;-68
2023/03/01 11:39:59;;;;;;;12.77;9.98;;;17.40;67.90;;;;;;5074824;28;20129;-68
2023/03/01 11:42:35;;;;;;;12.90;11.23;;;17.80;68.70;;;;;;5092462;28;20075;-68
2023/03/01 11:45:08;;;;;;;10.77;9.63;;;17.90;68.00;;;;;;5091881;28;20521;-69
2023/03/01 11:47:53;;;;;;;12.43;10.07;;;18.70;68.30;;;;;;5074580;28;20101;-69
2023/03/01 11:50:30;;;;;;;11.38;9.55;;;18.70;65.60;;;;;;5090624;28;20059;-67
2023/03/01 11:53:14;;;;;;;12.93;9.05;;;18.60;65.30;;;;;;5092684;28;20040;-68
2023/03/01 11:55:53;;;;;;;11.05;8.20;;;18.50;64.70;;;;;;5098052;28;20629;-69
2023/03/01 11:58:34;;;;;;;9.35;8.25;;;19.30;63.30;;;;;;5084671;28;20113;-68
2023/03/01 12:01:13;;;;;;;11.27;8.52;;;18.90;62.60;;;;;;5094282;28;20502;-68
2023/03/01 12:04:08;;;;;;;9.70;7.60;;;18.50;62.50;;;;;;5097230;28;20048;-67
2023/03/01 12:06:50;;;;;;;10.55;8.00;;;18.80;60.00;;;;;;5093768;28;20070;-68
2023/03/01 12:09:39;;;;;;;8.70;7.80;;;18.20;62.50;;;;;;5097010;28;20055;-68
2023/03/01 12:12:28;;;;;;;9.82;7.53;;;18.00;63.20;;;;;;5114789;28;20044;-69
2023/03/01 12:15:21;;;;;;;9.32;7.22;;;18.40;61.30;;;;;;5076474;28;20496;-68
2023/03/01 12:18:09;;;;;;;9.68;7.78;;;18.40;63.10;;;;;;5076527;28;20525;-68
2023/03/01 12:20:42;;;;;;;11.73;7.60;;;18.10;62.30;;;;;;5093149;28;20044;-69
2023/03/01 12:23:36;;;;;;;10.38;7.97;;;18.20;62.00;;;;;;5077759;28;20052;-68
2023/03/01 12:26:11;;;;;;;12.25;8.05;;;19.30;61.30;;;;;;5077327;28;20052;-68
2023/03/01 12:29:02;;;;;;;11.02;8.02;;;20.30;60.10;;;;;;5077727;28;20445;-68
2023/03/01 12:31:51;;;;;;;10.88;7.53;;;20.90;59.70;;;;;;5077270;28;20059;-68
2023/03/01 12:34:43;;;;;;;12.23;8.25;;;20.80;59.20;;;;;;5077229;28;20214;-68
2023/03/01 12:37:22;;;;;;;9.23;8.20;;;19.60;60.40;;;;;;5076783;28;20044;-68
2023/03/01 12:40:12;;;;;;;10.65;7.90;;;19.10;60.90;;;;;;5094374;28;20066;-68
2023/03/01 12:42:48;;;;;;;;;;;19.50;61.10;;;;;;5076950;28;20492;-70
2023/03/01 12:45:35;;;;;;;11.95;9.30;;;18.60;61.30;;;;;;5095527;28;19924;-69
2023/03/01 12:48:21;;;;;;;10.38;7.97;;;18.00;62.90;;;;;;5093208;28;20067;-69
2023/03/01 12:50:51;;;;;;;11.52;9.52;;;19.00;61.40;;;;;;5095416;28;20063;-68